sensor_id;sensor_type;location;lat;lon;timestamp;pressure;altitude;pressure_sealevel;temperature;humidity
77954;BME280;67151;52.544;6.034;2023-04-01T00:00:10;98960;;;22.4;44.5
77954;BME280;67151;52.544;6.034;2023-04-01T00:00:25;98960;;;22.4;44.7
77954;BME280;67151;52.544;6.034;2023-04-01T00:00:40;98950;;;22.4;45.1
77954;BME280;67151;52.544;6.034;2023-04-01T00:00:55;98960;;;22.4;45.1
77954;BME280;67151;52.544;6.034;2023-04-01T00:01:11;98960;;;22.3;45.7
77954;BME280;67151;52.544;6.034;2023-04-01T00:01:25;98960;;;22.3;45.6
77954;BME280;67151;52.544;6.034;2023-04-01T00:01:40;98960;;;22.3;45.3
77954;BME280;67151;52.544;6.034;2023-04-01T00:01:55;98960;;;22.3;45.1
77954;BME280;67151;52.544;6.034;2023-04-01T00:02:10;98960;;;22.4;45
77954;BME280;67151;52.544;6.034;2023-04-01T00:02:25;98960;;;22.4;44.9
77954;BME280;67151;52.544;6.034;2023-04-01T00:02:40;98960;;;22.4;44.9
77954;BME280;67151;52.544;6.034;2023-04-01T00:02:55;98960;;;22.4;44.7
77954;BME280;67151;52.544;6.034;2023-04-01T00:03:10;98960;;;22.4;44.6
77954;BME280;67151;52.544;6.034;2023-04-01T00:03:25;98950;;;22.4;44.6
77954;BME280;67151;52.544;6.034;2023-04-01T00:03:40;98960;;;22.4;44.6
77954;BME280;67151;52.544;6.034;2023-04-01T00:03:55;98950;;;22.4;44.5
77954;BME280;67151;52.544;6.034;2023-04-01T00:04:10;98960;;;22.4;44.5
77954;BME280;67151;52.544;6.034;2023-04-01T00:04:25;98950;;;22.4;44.5
77954;BME280;67151;52.544;6.034;2023-04-01T00:04:40;98950;;;22.4;44.5
77954;BME280;67151;52.544;6.034;2023-04-01T00:04:55;98950;;;22.4;44.5
77954;BME280;67151;52.544;6.034;2023-04-01T00:05:10;98950;;;22.4;44.6
77954;BME280;67151;52.544;6.034;2023-04-01T00:05:25;98960;;;22.4;44.6
77954;BME280;67151;52.544;6.034;2023-04-01T00:05:40;98960;;;22.4;44.6
77954;BME280;67151;52.544;6.034;2023-04-01T00:05:55;98960;;;22.4;44.5
77954;BME280;67151;52.544;6.034;2023-04-01T00:06:11;98960;;;22.4;44.5
77954;BME280;67151;52.544;6.034;2023-04-01T00:06:26;98960;;;22.4;44.6
77954;BME280;67151;52.544;6.034;2023-04-01T00:06:40;98950;;;22.4;44.5
77954;BME280;67151;52.544;6.034;2023-04-01T00:06:55;98960;;;22.4;44.5
77954;BME280;67151;52.544;6.034;2023-04-01T00:07:10;98950;;;22.4;45.1
77954;BME280;67151;52.544;6.034;2023-04-01T00:07:25;98950;;;22.4;44.8
77954;BME280;67151;52.544;6.034;2023-04-01T00:07:40;98970;;;22.4;44.6
77954;BME280;67151;52.544;6.034;2023-04-01T00:07:55;98950;;;22.4;44.6
77954;BME280;67151;52.544;6.034;2023-04-01T00:08:10;98960;;;22.4;44.5
77954;BME280;67151;52.544;6.034;2023-04-01T00:08:25;98960;;;22.4;44.5
77954;BME280;67151;52.544;6.034;2023-04-01T00:08:40;98960;;;22.4;44.5
77954;BME280;67151;52.544;6.034;2023-04-01T00:08:55;98960;;;22.4;44.6
77954;BME280;67151;52.544;6.034;2023-04-01T00:09:10;98960;;;22.4;44.6
77954;BME280;67151;52.544;6.034;2023-04-01T00:09:25;98960;;;22.4;44.6
77954;BME280;67151;52.544;6.034;2023-04-01T00:09:40;98960;;;22.3;44.8
77954;BME280;67151;52.544;6.034;2023-04-01T00:09:55;98960;;;22.4;44.7
77954;BME280;67151;52.544;6.034;2023-04-01T00:10:11;98970;;;22.4;44.6
77954;BME280;67151;52.544;6.034;2023-04-01T00:10:25;98960;;;22.4;44.5
77954;BME280;67151;52.544;6.034;2023-04-01T00:10:40;98960;;;22.4;44.5
77954;BME280;67151;52.544;6.034;2023-04-01T00:10:55;98960;;;22.4;44.5
77954;BME280;67151;52.544;6.034;2023-04-01T00:11:10;98960;;;22.4;44.6
77954;BME280;67151;52.544;6.034;2023-04-01T00:11:25;98960;;;22.4;44.5
77954;BME280;67151;52.544;6.034;2023-04-01T00:11:40;98950;;;22.4;44.6
77954;BME280;67151;52.544;6.034;2023-04-01T00:11:55;98970;;;22.4;44.8
77954;BME280;67151;52.544;6.034;2023-04-01T00:12:10;98960;;;22.4;44.6
77954;BME280;67151;52.544;6.034;2023-04-01T00:12:25;98960;;;22.4;45.2
77954;BME280;67151;52.544;6.034;2023-04-01T00:12:40;98960;;;22.3;45.1
77954;BME280;67151;52.544;6.034;2023-04-01T00:12:55;98960;;;22.3;45.4
77954;BME280;67151;52.544;6.034;2023-04-01T00:13:10;98960;;;22.3;45.3
77954;BME280;67151;52.544;6.034;2023-04-01T00:13:25;98960;;;22.3;44.9
77954;BME280;67151;52.544;6.034;2023-04-01T00:13:40;98960;;;22.4;44.9
77954;BME280;67151;52.544;6.034;2023-04-01T00:13:55;98960;;;22.4;44.6
77954;BME280;67151;52.544;6.034;2023-04-01T00:14:10;98960;;;22.4;44.6
77954;BME280;67151;52.544;6.034;2023-04-01T00:14:25;98960;;;22.4;44.6
77954;BME280;67151;52.544;6.034;2023-04-01T00:14:40;98960;;;22.4;44.6
77954;BME280;67151;52.544;6.034;2023-04-01T00:14:55;98960;;;22.4;44.5
77954;BME280;67151;52.544;6.034;2023-04-01T00:15:11;98960;;;22.4;44.5
77954;BME280;67151;52.544;6.034;2023-04-01T00:15:25;98960;;;22.4;44.6
77954;BME280;67151;52.544;6.034;2023-04-01T00:15:40;98960;;;22.4;44.7
77954;BME280;67151;52.544;6.034;2023-04-01T00:15:55;98960;;;22.4;44.7
77954;BME280;67151;52.544;6.034;2023-04-01T00:16:10;98960;;;22.4;44.9
77954;BME280;67151;52.544;6.034;2023-04-01T00:16:25;98960;;;22.4;44.6
77954;BME280;67151;52.544;6.034;2023-04-01T00:16:40;98960;;;22.4;44.5
77954;BME280;67151;52.544;6.034;2023-04-01T00:16:55;98960;;;22.4;44.5
77954;BME280;67151;52.544;6.034;2023-04-01T00:17:10;98960;;;22.4;44.5
77954;BME280;67151;52.544;6.034;2023-04-01T00:17:25;98950;;;22.4;45.3
77954;BME280;67151;52.544;6.034;2023-04-01T00:17:40;98960;;;22.3;45.3
77954;BME280;67151;52.544;6.034;2023-04-01T00:17:55;98970;;;22.4;44.8
77954;BME280;67151;52.544;6.034;2023-04-01T00:18:10;98970;;;22.4;45.1
77954;BME280;67151;52.544;6.034;2023-04-01T00:18:25;98970;;;22.4;44.8
77954;BME280;67151;52.544;6.034;2023-04-01T00:18:40;98960;;;22.4;45.1
77954;BME280;67151;52.544;6.034;2023-04-01T00:18:55;98960;;;22.4;44.7
77954;BME280;67151;52.544;6.034;2023-04-01T00:19:10;98960;;;22.4;45.3
77954;BME280;67151;52.544;6.034;2023-04-01T00:19:25;98960;;;22.4;45
77954;BME280;67151;52.544;6.034;2023-04-01T00:19:40;98970;;;22.4;44.8
77954;BME280;67151;52.544;6.034;2023-04-01T00:19:55;98970;;;22.4;44.7
77954;BME280;67151;52.544;6.034;2023-04-01T00:20:10;98970;;;22.4;44.9
77954;BME280;67151;52.544;6.034;2023-04-01T00:20:25;98960;;;22.4;44.8
77954;BME280;67151;52.544;6.034;2023-04-01T00:20:42;98970;;;22.4;45.1
77954;BME280;67151;52.544;6.034;2023-04-01T00:20:55;98970;;;22.3;44.9
77954;BME280;67151;52.544;6.034;2023-04-01T00:21:10;98960;;;22.3;44.8
77954;BME280;67151;52.544;6.034;2023-04-01T00:21:25;98960;;;22.3;44.7
77954;BME280;67151;52.544;6.034;2023-04-01T00:21:40;98970;;;22.4;44.8
77954;BME280;67151;52.544;6.034;2023-04-01T00:21:55;98960;;;22.4;44.8
77954;BME280;67151;52.544;6.034;2023-04-01T00:22:10;98970;;;22.4;44.9
77954;BME280;67151;52.544;6.034;2023-04-01T00:22:25;98960;;;22.3;44.8
77954;BME280;67151;52.544;6.034;2023-04-01T00:22:40;98970;;;22.4;44.7
77954;BME280;67151;52.544;6.034;2023-04-01T00:22:55;98960;;;22.4;45
77954;BME280;67151;52.544;6.034;2023-04-01T00:23:10;98960;;;22.4;45.1
77954;BME280;67151;52.544;6.034;2023-04-01T00:23:25;98960;;;22.4;45.4
77954;BME280;67151;52.544;6.034;2023-04-01T00:23:40;98970;;;22.4;44.8
77954;BME280;67151;52.544;6.034;2023-04-01T00:23:55;98970;;;22.4;45
77954;BME280;67151;52.544;6.034;2023-04-01T00:24:10;98970;;;22.3;45.5
77954;BME280;67151;52.544;6.034;2023-04-01T00:24:25;98970;;;22.4;45.1
77954;BME280;67151;52.544;6.034;2023-04-01T00:24:40;98960;;;22.4;45.3
77954;BME280;67151;52.544;6.034;2023-04-01T00:24:55;98970;;;22.4;45.1
77954;BME280;67151;52.544;6.034;2023-04-01T00:25:10;98970;;;22.4;45.1
77954;BME280;67151;52.544;6.034;2023-04-01T00:25:25;98960;;;22.3;45.8
77954;BME280;67151;52.544;6.034;2023-04-01T00:25:40;98960;;;22.4;44.8
77954;BME280;67151;52.544;6.034;2023-04-01T00:25:55;98960;;;22.4;44.6
77954;BME280;67151;52.544;6.034;2023-04-01T00:26:10;98970;;;22.4;44.7
77954;BME280;67151;52.544;6.034;2023-04-01T00:26:25;98960;;;22.4;44.7
77954;BME280;67151;52.544;6.034;2023-04-01T00:26:40;98970;;;22.4;44.6
77954;BME280;67151;52.544;6.034;2023-04-01T00:26:55;98960;;;22.4;44.6
77954;BME280;67151;52.544;6.034;2023-04-01T00:27:10;98970;;;22.4;44.7
77954;BME280;67151;52.544;6.034;2023-04-01T00:27:25;98970;;;22.4;44.7
77954;BME280;67151;52.544;6.034;2023-04-01T00:27:40;98970;;;22.4;45.3
77954;BME280;67151;52.544;6.034;2023-04-01T00:27:55;98970;;;22.4;45.1
77954;BME280;67151;52.544;6.034;2023-04-01T00:28:10;98960;;;22.4;44.7
77954;BME280;67151;52.544;6.034;2023-04-01T00:28:25;98970;;;22.4;45.2
77954;BME280;67151;52.544;6.034;2023-04-01T00:28:40;98970;;;22.4;44.7
77954;BME280;67151;52.544;6.034;2023-04-01T00:28:55;98970;;;22.4;44.6
77954;BME280;67151;52.544;6.034;2023-04-01T00:29:10;98970;;;22.4;44.6
77954;BME280;67151;52.544;6.034;2023-04-01T00:29:25;98970;;;22.4;44.6
77954;BME280;67151;52.544;6.034;2023-04-01T00:29:41;98960;;;22.4;44.6
77954;BME280;67151;52.544;6.034;2023-04-01T00:29:55;98970;;;22.4;44.6
77954;BME280;67151;52.544;6.034;2023-04-01T00:30:10;98970;;;22.4;44.7
77954;BME280;67151;52.544;6.034;2023-04-01T00:30:25;98970;;;22.4;44.6
77954;BME280;67151;52.544;6.034;2023-04-01T00:30:40;98970;;;22.4;44.7
77954;BME280;67151;52.544;6.034;2023-04-01T00:30:55;98960;;;22.4;44.7
77954;BME280;67151;52.544;6.034;2023-04-01T00:31:13;98970;;;22.4;44.7
77954;BME280;67151;52.544;6.034;2023-04-01T00:31:25;98960;;;22.4;44.7
77954;BME280;67151;52.544;6.034;2023-04-01T00:31:40;98960;;;22.4;44.7
77954;BME280;67151;52.544;6.034;2023-04-01T00:31:55;98970;;;22.4;44.7
77954;BME280;67151;52.544;6.034;2023-04-01T00:32:10;98960;;;22.4;44.7
77954;BME280;67151;52.544;6.034;2023-04-01T00:32:25;98960;;;22.4;45
77954;BME280;67151;52.544;6.034;2023-04-01T00:32:40;98970;;;22.4;44.8
77954;BME280;67151;52.544;6.034;2023-04-01T00:32:55;98970;;;22.4;44.9
77954;BME280;67151;52.544;6.034;2023-04-01T00:33:12;98970;;;22.4;44.5
77954;BME280;67151;52.544;6.034;2023-04-01T00:33:25;98970;;;22.4;44.8
77954;BME280;67151;52.544;6.034;2023-04-01T00:33:40;98970;;;22.4;45.2
77954;BME280;67151;52.544;6.034;2023-04-01T00:33:55;98970;;;22.3;45.6
77954;BME280;67151;52.544;6.034;2023-04-01T00:34:10;98960;;;22.3;45.4
77954;BME280;67151;52.544;6.034;2023-04-01T00:34:26;98970;;;22.3;45.2
77954;BME280;67151;52.544;6.034;2023-04-01T00:34:40;98970;;;22.4;44.9
77954;BME280;67151;52.544;6.034;2023-04-01T00:34:55;98970;;;22.4;44.9
77954;BME280;67151;52.544;6.034;2023-04-01T00:35:10;98960;;;22.4;44.8
77954;BME280;67151;52.544;6.034;2023-04-01T00:35:25;98960;;;22.3;45
77954;BME280;67151;52.544;6.034;2023-04-01T00:35:41;98970;;;22.3;45.3
77954;BME280;67151;52.544;6.034;2023-04-01T00:35:55;98960;;;22.3;45.3
77954;BME280;67151;52.544;6.034;2023-04-01T00:36:11;98970;;;22.3;45
77954;BME280;67151;52.544;6.034;2023-04-01T00:36:25;98970;;;22.4;45.1
77954;BME280;67151;52.544;6.034;2023-04-01T00:36:40;98970;;;22.4;44.9
77954;BME280;67151;52.544;6.034;2023-04-01T00:36:55;98960;;;22.3;44.9
77954;BME280;67151;52.544;6.034;2023-04-01T00:37:10;98970;;;22.4;45.1
77954;BME280;67151;52.544;6.034;2023-04-01T00:37:25;98960;;;22.3;45.2
77954;BME280;67151;52.544;6.034;2023-04-01T00:37:40;98970;;;22.4;44.8
77954;BME280;67151;52.544;6.034;2023-04-01T00:37:55;98970;;;22.3;45.2
77954;BME280;67151;52.544;6.034;2023-04-01T00:38:10;98960;;;22.3;45.1
77954;BME280;67151;52.544;6.034;2023-04-01T00:38:25;98960;;;22.3;45.3
77954;BME280;67151;52.544;6.034;2023-04-01T00:38:40;98960;;;22.3;45.5
77954;BME280;67151;52.544;6.034;2023-04-01T00:38:55;98960;;;22.3;45.4
77954;BME280;67151;52.544;6.034;2023-04-01T00:39:10;98960;;;22.3;45.3
77954;BME280;67151;52.544;6.034;2023-04-01T00:39:25;98960;;;22.3;45.3
77954;BME280;67151;52.544;6.034;2023-04-01T00:39:40;98970;;;22.3;45.4
77954;BME280;67151;52.544;6.034;2023-04-01T00:39:55;98960;;;22.3;45.3
77954;BME280;67151;52.544;6.034;2023-04-01T00:40:18;98970;;;22.3;45.1
77954;BME280;67151;52.544;6.034;2023-04-01T00:40:26;98970;;;22.3;45.2
77954;BME280;67151;52.544;6.034;2023-04-01T00:40:41;98960;;;22.3;45.2
77954;BME280;67151;52.544;6.034;2023-04-01T00:40:56;98960;;;22.3;45.2
77954;BME280;67151;52.544;6.034;2023-04-01T00:41:11;98960;;;22.3;45.2
77954;BME280;67151;52.544;6.034;2023-04-01T00:41:25;98970;;;22.3;45.2
77954;BME280;67151;52.544;6.034;2023-04-01T00:41:40;98970;;;22.3;45.2
77954;BME280;67151;52.544;6.034;2023-04-01T00:41:55;98970;;;22.3;45.1
77954;BME280;67151;52.544;6.034;2023-04-01T00:42:10;98960;;;22.3;44.9
77954;BME280;67151;52.544;6.034;2023-04-01T00:42:25;98970;;;22.3;45.4
77954;BME280;67151;52.544;6.034;2023-04-01T00:42:40;98960;;;22.3;45.3
77954;BME280;67151;52.544;6.034;2023-04-01T00:42:55;98970;;;22.3;45.3
77954;BME280;67151;52.544;6.034;2023-04-01T00:43:11;98970;;;22.3;45.1
77954;BME280;67151;52.544;6.034;2023-04-01T00:43:25;98980;;;22.4;45.1
77954;BME280;67151;52.544;6.034;2023-04-01T00:43:40;98970;;;22.3;44.9
77954;BME280;67151;52.544;6.034;2023-04-01T00:44:11;98970;;;22.3;45.2
77954;BME280;67151;52.544;6.034;2023-04-01T00:44:14;98970;;;22.3;44.9
77954;BME280;67151;52.544;6.034;2023-04-01T00:44:26;98960;;;22.3;45.1
77954;BME280;67151;52.544;6.034;2023-04-01T00:44:40;98970;;;22.3;45
77954;BME280;67151;52.544;6.034;2023-04-01T00:44:55;98970;;;22.3;45.3
77954;BME280;67151;52.544;6.034;2023-04-01T00:45:28;98970;;;22.3;45.3
77954;BME280;67151;52.544;6.034;2023-04-01T00:45:30;98970;;;22.3;45.4
77954;BME280;67151;52.544;6.034;2023-04-01T00:45:41;98970;;;22.3;45.2
77954;BME280;67151;52.544;6.034;2023-04-01T00:45:55;98960;;;22.3;45.1
77954;BME280;67151;52.544;6.034;2023-04-01T00:46:10;98970;;;22.4;45.2
77954;BME280;67151;52.544;6.034;2023-04-01T00:46:25;98980;;;22.3;45.2
77954;BME280;67151;52.544;6.034;2023-04-01T00:46:40;98970;;;22.3;45.2
77954;BME280;67151;52.544;6.034;2023-04-01T00:46:55;98960;;;22.4;44.9
77954;BME280;67151;52.544;6.034;2023-04-01T00:47:10;98970;;;22.4;45
77954;BME280;67151;52.544;6.034;2023-04-01T00:47:25;98960;;;22.3;45.2
77954;BME280;67151;52.544;6.034;2023-04-01T00:47:40;98970;;;22.3;45.3
77954;BME280;67151;52.544;6.034;2023-04-01T00:47:55;98970;;;22.3;45.5
77954;BME280;67151;52.544;6.034;2023-04-01T00:48:11;98970;;;22.3;45.6
77954;BME280;67151;52.544;6.034;2023-04-01T00:48:27;98970;;;22.3;45.4
77954;BME280;67151;52.544;6.034;2023-04-01T00:48:41;98970;;;22.3;45.5
77954;BME280;67151;52.544;6.034;2023-04-01T00:48:55;98970;;;22.3;45.7
77954;BME280;67151;52.544;6.034;2023-04-01T00:49:10;98970;;;22.3;45.4
77954;BME280;67151;52.544;6.034;2023-04-01T00:49:26;98960;;;22.3;45.3
77954;BME280;67151;52.544;6.034;2023-04-01T00:49:40;98970;;;22.3;45.2
77954;BME280;67151;52.544;6.034;2023-04-01T00:49:55;98980;;;22.3;45.1
77954;BME280;67151;52.544;6.034;2023-04-01T00:50:10;98970;;;22.3;45
77954;BME280;67151;52.544;6.034;2023-04-01T00:50:25;98970;;;22.3;45.2
77954;BME280;67151;52.544;6.034;2023-04-01T00:50:40;98970;;;22.3;45.3
77954;BME280;67151;52.544;6.034;2023-04-01T00:50:56;98970;;;22.3;45.3
77954;BME280;67151;52.544;6.034;2023-04-01T00:51:11;98970;;;22.4;45.1
77954;BME280;67151;52.544;6.034;2023-04-01T00:51:25;98970;;;22.3;45.4
77954;BME280;67151;52.544;6.034;2023-04-01T00:51:40;98970;;;22.3;45.4
77954;BME280;67151;52.544;6.034;2023-04-01T00:51:55;98970;;;22.3;45.2
77954;BME280;67151;52.544;6.034;2023-04-01T00:52:11;98970;;;22.4;44.8
77954;BME280;67151;52.544;6.034;2023-04-01T00:52:25;98970;;;22.3;45.1
77954;BME280;67151;52.544;6.034;2023-04-01T00:52:40;98970;;;22.3;45.2
77954;BME280;67151;52.544;6.034;2023-04-01T00:52:55;98970;;;22.3;45.2
77954;BME280;67151;52.544;6.034;2023-04-01T00:53:10;98980;;;22.3;45.1
77954;BME280;67151;52.544;6.034;2023-04-01T00:53:25;98970;;;22.4;45.1
77954;BME280;67151;52.544;6.034;2023-04-01T00:53:41;98970;;;22.3;44.9
77954;BME280;67151;52.544;6.034;2023-04-01T00:53:56;98980;;;22.4;45
77954;BME280;67151;52.544;6.034;2023-04-01T00:54:10;98970;;;22.4;44.8
77954;BME280;67151;52.544;6.034;2023-04-01T00:54:25;98970;;;22.3;45
77954;BME280;67151;52.544;6.034;2023-04-01T00:54:40;98970;;;22.4;45.1
77954;BME280;67151;52.544;6.034;2023-04-01T00:54:55;98970;;;22.3;44.9
77954;BME280;67151;52.544;6.034;2023-04-01T00:55:10;98970;;;22.4;45.3
77954;BME280;67151;52.544;6.034;2023-04-01T00:55:25;98970;;;22.3;45.1
77954;BME280;67151;52.544;6.034;2023-04-01T00:55:41;98970;;;22.3;45.2
77954;BME280;67151;52.544;6.034;2023-04-01T00:55:58;98970;;;22.3;45.1
77954;BME280;67151;52.544;6.034;2023-04-01T00:56:12;98970;;;22.3;45.2
77954;BME280;67151;52.544;6.034;2023-04-01T00:56:25;98970;;;22.3;45.2
77954;BME280;67151;52.544;6.034;2023-04-01T00:56:41;98970;;;22.3;45
77954;BME280;67151;52.544;6.034;2023-04-01T00:56:55;98980;;;22.3;45.2
77954;BME280;67151;52.544;6.034;2023-04-01T00:57:11;98970;;;22.3;45.2
77954;BME280;67151;52.544;6.034;2023-04-01T00:57:27;98970;;;22.3;45.1
77954;BME280;67151;52.544;6.034;2023-04-01T00:57:40;98980;;;22.3;45.3
77954;BME280;67151;52.544;6.034;2023-04-01T00:57:55;98970;;;22.3;45.4
77954;BME280;67151;52.544;6.034;2023-04-01T00:58:14;98970;;;22.3;44.8
77954;BME280;67151;52.544;6.034;2023-04-01T00:58:25;98970;;;22.3;45.2
77954;BME280;67151;52.544;6.034;2023-04-01T00:58:41;98980;;;22.4;45.2
77954;BME280;67151;52.544;6.034;2023-04-01T00:58:57;98970;;;22.3;45
77954;BME280;67151;52.544;6.034;2023-04-01T00:59:11;98970;;;22.4;45
77954;BME280;67151;52.544;6.034;2023-04-01T00:59:26;98980;;;22.3;45.1
77954;BME280;67151;52.544;6.034;2023-04-01T00:59:40;98980;;;22.3;45
77954;BME280;67151;52.544;6.034;2023-04-01T00:59:55;98970;;;22.3;45.1
77954;BME280;67151;52.544;6.034;2023-04-01T01:00:10;98970;;;22.3;45.2
77954;BME280;67151;52.544;6.034;2023-04-01T01:00:26;98980;;;22.3;45.2
77954;BME280;67151;52.544;6.034;2023-04-01T01:00:40;98970;;;22.3;44.9
77954;BME280;67151;52.544;6.034;2023-04-01T01:00:55;98970;;;22.3;45.2
77954;BME280;67151;52.544;6.034;2023-04-01T01:01:10;98970;;;22.3;45.2
77954;BME280;67151;52.544;6.034;2023-04-01T01:01:25;98970;;;22.3;45.1
77954;BME280;67151;52.544;6.034;2023-04-01T01:01:40;98970;;;22.3;45.1
77954;BME280;67151;52.544;6.034;2023-04-01T01:01:55;98970;;;22.3;44.9
77954;BME280;67151;52.544;6.034;2023-04-01T01:02:11;98980;;;22.3;45.2
77954;BME280;67151;52.544;6.034;2023-04-01T01:02:25;98980;;;22.3;45
77954;BME280;67151;52.544;6.034;2023-04-01T01:02:40;98980;;;22.4;44.8
77954;BME280;67151;52.544;6.034;2023-04-01T01:02:55;98970;;;22.3;45
77954;BME280;67151;52.544;6.034;2023-04-01T01:03:10;98970;;;22.3;45.3
77954;BME280;67151;52.544;6.034;2023-04-01T01:03:25;98980;;;22.3;45.1
77954;BME280;67151;52.544;6.034;2023-04-01T01:03:40;98970;;;22.3;45.2
77954;BME280;67151;52.544;6.034;2023-04-01T01:03:56;98980;;;22.3;44.9
77954;BME280;67151;52.544;6.034;2023-04-01T01:04:24;98980;;;22.4;45.1
77954;BME280;67151;52.544;6.034;2023-04-01T01:04:26;98980;;;22.4;44.9
77954;BME280;67151;52.544;6.034;2023-04-01T01:04:40;98970;;;22.4;44.9
77954;BME280;67151;52.544;6.034;2023-04-01T01:04:55;98980;;;22.3;45.1
77954;BME280;67151;52.544;6.034;2023-04-01T01:05:11;98970;;;22.3;44.9
77954;BME280;67151;52.544;6.034;2023-04-01T01:05:28;98980;;;22.4;44.9
77954;BME280;67151;52.544;6.034;2023-04-01T01:05:49;98970;;;22.4;45
77954;BME280;67151;52.544;6.034;2023-04-01T01:06:02;98980;;;22.3;45.1
77954;BME280;67151;52.544;6.034;2023-04-01T01:06:11;98970;;;22.3;45.1
77954;BME280;67151;52.544;6.034;2023-04-01T01:06:28;98980;;;22.3;45.1
77954;BME280;67151;52.544;6.034;2023-04-01T01:06:43;98970;;;22.4;45.1
77954;BME280;67151;52.544;6.034;2023-04-01T01:06:57;98980;;;22.4;45
77954;BME280;67151;52.544;6.034;2023-04-01T01:07:12;98980;;;22.4;45.1
77954;BME280;67151;52.544;6.034;2023-04-01T01:07:26;98970;;;22.4;45.1
77954;BME280;67151;52.544;6.034;2023-04-01T01:07:41;98980;;;22.3;45.3
77954;BME280;67151;52.544;6.034;2023-04-01T01:07:56;98980;;;22.4;45.1
77954;BME280;67151;52.544;6.034;2023-04-01T01:08:12;98970;;;22.3;45.2
77954;BME280;67151;52.544;6.034;2023-04-01T01:08:27;98970;;;22.3;44.9
77954;BME280;67151;52.544;6.034;2023-04-01T01:08:51;98980;;;22.3;45.2
77954;BME280;67151;52.544;6.034;2023-04-01T01:09:00;98980;;;22.3;45.3
77954;BME280;67151;52.544;6.034;2023-04-01T01:09:13;98980;;;22.3;45.2
77954;BME280;67151;52.544;6.034;2023-04-01T01:09:27;98970;;;22.3;45.1
77954;BME280;67151;52.544;6.034;2023-04-01T01:09:42;98970;;;22.3;45.2
77954;BME280;67151;52.544;6.034;2023-04-01T01:09:56;98970;;;22.3;45.2
77954;BME280;67151;52.544;6.034;2023-04-01T01:10:10;98980;;;22.4;45.3
77954;BME280;67151;52.544;6.034;2023-04-01T01:10:26;98970;;;22.3;45.4
77954;BME280;67151;52.544;6.034;2023-04-01T01:10:40;98980;;;22.3;45.3
77954;BME280;67151;52.544;6.034;2023-04-01T01:10:55;98980;;;22.3;45
77954;BME280;67151;52.544;6.034;2023-04-01T01:11:10;98980;;;22.4;45
77954;BME280;67151;52.544;6.034;2023-04-01T01:11:27;98980;;;22.3;45.1
77954;BME280;67151;52.544;6.034;2023-04-01T01:11:41;98980;;;22.4;44.9
77954;BME280;67151;52.544;6.034;2023-04-01T01:11:57;98980;;;22.4;45.1
77954;BME280;67151;52.544;6.034;2023-04-01T01:12:11;98980;;;22.3;45.1
77954;BME280;67151;52.544;6.034;2023-04-01T01:12:25;98980;;;22.4;45
77954;BME280;67151;52.544;6.034;2023-04-01T01:12:40;98970;;;22.3;44.9
77954;BME280;67151;52.544;6.034;2023-04-01T01:12:57;98980;;;22.4;44.8
77954;BME280;67151;52.544;6.034;2023-04-01T01:13:10;98980;;;22.4;45.1
77954;BME280;67151;52.544;6.034;2023-04-01T01:13:26;98980;;;22.3;45.3
77954;BME280;67151;52.544;6.034;2023-04-01T01:13:41;98980;;;22.4;44.7
77954;BME280;67151;52.544;6.034;2023-04-01T01:13:56;98980;;;22.3;44.9
77954;BME280;67151;52.544;6.034;2023-04-01T01:14:15;98980;;;22.3;45
77954;BME280;67151;52.544;6.034;2023-04-01T01:14:29;98980;;;22.3;45
77954;BME280;67151;52.544;6.034;2023-04-01T01:14:44;98970;;;22.4;44.9
77954;BME280;67151;52.544;6.034;2023-04-01T01:14:57;98980;;;22.3;45.3
77954;BME280;67151;52.544;6.034;2023-04-01T01:15:12;98980;;;22.3;45
77954;BME280;67151;52.544;6.034;2023-04-01T01:15:25;98980;;;22.3;45
77954;BME280;67151;52.544;6.034;2023-04-01T01:15:41;98980;;;22.3;45
77954;BME280;67151;52.544;6.034;2023-04-01T01:15:56;98980;;;22.3;44.8
77954;BME280;67151;52.544;6.034;2023-04-01T01:16:10;98980;;;22.4;44.8
77954;BME280;67151;52.544;6.034;2023-04-01T01:16:26;98980;;;22.4;44.9
77954;BME280;67151;52.544;6.034;2023-04-01T01:16:41;98980;;;22.4;44.7
77954;BME280;67151;52.544;6.034;2023-04-01T01:16:57;98980;;;22.3;44.8
77954;BME280;67151;52.544;6.034;2023-04-01T01:17:12;98980;;;22.3;45.2
77954;BME280;67151;52.544;6.034;2023-04-01T01:17:27;98980;;;22.4;45.2
77954;BME280;67151;52.544;6.034;2023-04-01T01:17:44;98990;;;22.4;45.6
77954;BME280;67151;52.544;6.034;2023-04-01T01:17:56;98970;;;22.3;45.4
77954;BME280;67151;52.544;6.034;2023-04-01T01:18:12;98980;;;22.3;45
77954;BME280;67151;52.544;6.034;2023-04-01T01:18:27;98980;;;22.3;45.1
77954;BME280;67151;52.544;6.034;2023-04-01T01:18:41;98980;;;22.3;45.1
77954;BME280;67151;52.544;6.034;2023-04-01T01:18:56;98980;;;22.3;44.9
77954;BME280;67151;52.544;6.034;2023-04-01T01:19:12;98980;;;22.3;44.8
77954;BME280;67151;52.544;6.034;2023-04-01T01:19:31;98980;;;22.3;44.8
77954;BME280;67151;52.544;6.034;2023-04-01T01:19:52;98980;;;22.3;44.8
77954;BME280;67151;52.544;6.034;2023-04-01T01:20:22;98980;;;22.3;44.6
77954;BME280;67151;52.544;6.034;2023-04-01T01:20:37;98970;;;22.3;44.6
77954;BME280;67151;52.544;6.034;2023-04-01T01:20:44;98980;;;22.3;44.9
77954;BME280;67151;52.544;6.034;2023-04-01T01:20:56;98980;;;22.4;44.7
77954;BME280;67151;52.544;6.034;2023-04-01T01:21:04;98980;;;22.3;44.9
77954;BME280;67151;52.544;6.034;2023-04-01T01:21:37;98980;;;22.4;44.8
77954;BME280;67151;52.544;6.034;2023-04-01T01:21:42;98990;;;22.3;44.8
77954;BME280;67151;52.544;6.034;2023-04-01T01:22:02;98980;;;22.3;44.8
77954;BME280;67151;52.544;6.034;2023-04-01T01:22:17;98990;;;22.3;44.8
77954;BME280;67151;52.544;6.034;2023-04-01T01:22:30;98980;;;22.3;44.7
77954;BME280;67151;52.544;6.034;2023-04-01T01:22:45;98980;;;22.3;44.8
77954;BME280;67151;52.544;6.034;2023-04-01T01:23:00;98980;;;22.3;44.8
77954;BME280;67151;52.544;6.034;2023-04-01T01:23:15;98980;;;22.3;45
77954;BME280;67151;52.544;6.034;2023-04-01T01:23:37;98980;;;22.3;44.8
77954;BME280;67151;52.544;6.034;2023-04-01T01:23:45;98980;;;22.3;44.9
77954;BME280;67151;52.544;6.034;2023-04-01T01:23:57;98980;;;22.3;44.9
77954;BME280;67151;52.544;6.034;2023-04-01T01:24:17;98990;;;22.3;44.8
77954;BME280;67151;52.544;6.034;2023-04-01T01:24:28;98990;;;22.3;44.8
77954;BME280;67151;52.544;6.034;2023-04-01T01:24:42;98990;;;22.4;44.7
77954;BME280;67151;52.544;6.034;2023-04-01T01:24:57;98990;;;22.3;44.7
77954;BME280;67151;52.544;6.034;2023-04-01T01:25:13;98980;;;22.4;44.8
77954;BME280;67151;52.544;6.034;2023-04-01T01:25:28;98980;;;22.3;44.7
77954;BME280;67151;52.544;6.034;2023-04-01T01:25:40;98980;;;22.4;44.6